Time;durP1;ratioP1;P1;durP2;ratioP2;P2;SDS_P1;SDS_P2;PMS_P1;PMS_P2;Temp;Humidity;BMP_temperature;BMP_pressure;BME280_temperature;BME280_humidity;BME280_pressure;Samples;Min_cycle;Max_cycle;Signal;HPM_P1;HPM_P2
2023/12/13 00:00:18;;;;;;;8.93;3.22;;;;;;;-143.54;100.00;59916.91;5095761;28;20028;-79
2023/12/13 00:02:43;;;;;;;7.03;3.30;;;;;;;-143.54;100.00;59916.91;5095513;28;20028;-79
2023/12/13 00:05:08;;;;;;;9.70;3.20;;;;;;;-143.54;100.00;59916.91;5094356;28;20040;-79
2023/12/13 00:07:34;;;;;;;10.35;3.30;;;;;;;-143.54;100.00;59916.91;5095707;28;20073;-79
2023/12/13 00:09:59;;;;;;;9.90;3.05;;;;;;;-143.54;100.00;59916.91;5095046;28;20134;-80
2023/12/13 00:12:24;;;;;;;8.60;3.28;;;;;;;-143.54;100.00;59916.91;5094540;28;20028;-79
2023/12/13 00:14:50;;;;;;;11.40;3.10;;;;;;;-143.54;100.00;59916.91;5095340;28;20028;-79
2023/12/13 00:17:15;;;;;;;7.75;3.25;;;;;;;-143.54;100.00;59916.91;5095019;28;20050;-79
2023/12/13 00:19:40;;;;;;;8.93;3.13;;;;;;;-143.54;100.00;59916.91;5094869;28;20111;-79
2023/12/13 00:22:06;;;;;;;9.55;3.00;;;;;;;-143.54;100.00;59916.91;5094632;28;20024;-79
2023/12/13 00:24:31;;;;;;;12.75;2.97;;;;;;;-143.54;100.00;59916.91;5094065;28;20062;-79
2023/12/13 00:26:57;;;;;;;9.00;2.95;;;;;;;-143.54;100.00;59916.91;5094202;28;20092;-79
2023/12/13 00:29:22;;;;;;;10.90;3.13;;;;;;;-143.54;100.00;59916.91;5094464;28;20028;-79
2023/12/13 00:31:47;;;;;;;11.23;3.03;;;;;;;-143.54;100.00;59916.91;5094605;28;20028;-80
2023/12/13 00:34:13;;;;;;;10.80;3.13;;;;;;;-143.54;100.00;59916.91;5094304;28;20028;-79
2023/12/13 00:36:38;;;;;;;8.10;2.67;;;;;;;-143.54;100.00;59916.91;5095003;28;20543;-79
2023/12/13 00:39:03;;;;;;;6.03;2.70;;;;;;;-143.54;100.00;59916.91;5093660;28;20024;-79
2023/12/13 00:41:28;;;;;;;9.85;2.90;;;;;;;-143.54;100.00;59916.91;5094760;28;20424;-80
2023/12/13 00:43:54;;;;;;;9.23;2.97;;;;;;;-143.54;100.00;59916.91;5094488;28;20020;-80
2023/12/13 00:46:22;;;;;;;10.77;2.83;;;;;;;-143.54;100.00;59916.91;5093983;28;20067;-79
2023/12/13 00:48:51;;;;;;;11.43;3.25;;;;;;;-143.54;100.00;59916.91;5094348;28;20027;-79
2023/12/13 00:51:18;;;;;;;11.40;3.05;;;;;;;-143.54;100.00;59916.91;5094445;28;20035;-79
2023/12/13 00:53:43;;;;;;;8.40;2.85;;;;;;;-143.54;100.00;59916.91;5093794;28;20040;-79
2023/12/13 00:56:09;;;;;;;7.55;3.10;;;;;;;-143.54;100.00;59916.91;5094139;28;20058;-80
2023/12/13 00:58:34;;;;;;;8.73;3.03;;;;;;;-143.54;100.00;59916.91;5094568;28;20111;-79
2023/12/13 01:01:00;;;;;;;8.48;3.20;;;;;;;-143.54;100.00;59916.91;5093191;28;20475;-79
2023/12/13 01:03:25;;;;;;;15.40;3.60;;;;;;;-143.54;100.00;59916.91;5094435;28;20067;-79
2023/12/13 01:05:51;;;;;;;9.77;3.35;;;;;;;-143.54;100.00;59916.91;5098700;28;20058;-79
2023/12/13 01:08:17;;;;;;;12.80;3.70;;;;;;;-143.54;100.00;59916.91;5109152;28;20162;-80
2023/12/13 01:10:42;;;;;;;8.27;3.40;;;;;;;-143.54;100.00;59916.91;5102220;28;20460;-79
2023/12/13 01:13:08;;;;;;;9.88;3.60;;;;;;;-143.54;100.00;59916.91;5098248;28;20027;-80
2023/12/13 01:15:33;;;;;;;14.82;4.00;;;;;;;-143.54;100.00;59916.91;5102549;28;20023;-79
2023/12/13 01:17:58;;;;;;;11.20;3.40;;;;;;;-143.54;100.00;59916.91;5099086;28;20074;-79
2023/12/13 01:20:24;;;;;;;11.88;3.42;;;;;;;-143.54;100.00;59916.91;5097527;28;20016;-79
2023/12/13 01:22:49;;;;;;;12.35;3.63;;;;;;;-143.54;100.00;59916.91;5099805;28;20015;-80
2023/12/13 01:25:14;;;;;;;14.48;4.03;;;;;;;-143.54;100.00;59916.91;5098110;28;20028;-80
2023/12/13 01:27:40;;;;;;;12.90;3.75;;;;;;;-143.54;100.00;59916.91;5102538;28;20020;-80
2023/12/13 01:30:08;;;;;;;9.32;3.80;;;;;;;-143.54;100.00;59916.91;5097064;28;20027;-79
2023/12/13 01:32:33;;;;;;;12.60;4.05;;;;;;;-143.54;100.00;59916.91;5101904;28;20060;-79
2023/12/13 01:34:59;;;;;;;10.32;3.47;;;;;;;-143.54;100.00;59916.91;5097063;28;20441;-79
2023/12/13 01:37:24;;;;;;;9.52;3.80;;;;;;;-143.54;100.00;59916.91;5100682;28;20020;-79
2023/12/13 01:39:49;;;;;;;8.27;3.25;;;;;;;-143.54;100.00;59916.91;5097428;28;20103;-79
2023/12/13 01:42:15;;;;;;;8.05;3.05;;;;;;;-143.54;100.00;59916.91;5099313;28;20016;-79
2023/12/13 01:44:41;;;;;;;13.68;3.80;;;;;;;-143.54;100.00;59916.91;5096937;28;20355;-79
2023/12/13 01:47:07;;;;;;;10.63;3.78;;;;;;;-143.54;100.00;59916.91;5099260;28;20365;-79
2023/12/13 01:49:32;;;;;;;11.73;4.03;;;;;;;-143.54;100.00;59916.91;5096161;28;20053;-79
2023/12/13 01:51:58;;;;;;;15.25;4.63;;;;;;;-143.54;100.00;59916.91;5099152;28;20111;-79
2023/12/13 01:54:24;;;;;;;11.98;4.20;;;;;;;-143.54;100.00;59916.91;5094569;28;20052;-79
2023/12/13 01:56:51;;;;;;;8.77;4.50;;;;;;;-143.54;100.00;59916.91;5099357;28;20027;-79
2023/12/13 01:59:17;;;;;;;14.20;4.22;;;;;;;-143.54;100.00;59916.91;5102106;28;20345;-79
2023/12/13 02:01:43;;;;;;;15.93;4.82;;;;;;;-143.54;100.00;59916.91;5101529;28;20026;-79
2023/12/13 02:04:14;;;;;;;16.20;4.75;;;;;;;-143.54;100.00;59916.91;5100475;28;20023;-79
2023/12/13 02:06:40;;;;;;;16.10;4.85;;;;;;;-143.54;100.00;59916.91;5100348;28;20122;-79
2023/12/13 02:09:06;;;;;;;21.13;5.07;;;;;;;-143.54;100.00;59916.91;5101665;28;20032;-79
2023/12/13 02:11:31;;;;;;;17.17;5.07;;;;;;;-143.54;100.00;59916.91;5097288;28;20035;-79
2023/12/13 02:13:56;;;;;;;16.10;4.55;;;;;;;-143.54;100.00;59916.91;5103102;28;20030;-79
2023/12/13 02:16:22;;;;;;;13.85;4.95;;;;;;;-143.54;100.00;59916.91;5094424;28;20028;-79
2023/12/13 02:18:47;;;;;;;17.20;5.03;;;;;;;-143.54;100.00;59916.91;5101411;28;20042;-79
2023/12/13 02:21:12;;;;;;;15.77;4.20;;;;;;;-143.54;100.00;59916.91;5095694;28;20409;-79
2023/12/13 02:23:38;;;;;;;16.38;4.50;;;;;;;-143.54;100.00;59916.91;5099697;28;20427;-79
2023/12/13 02:26:05;;;;;;;22.67;4.22;;;;;;;-143.54;100.00;59916.91;5096373;28;20077;-78
2023/12/13 02:28:31;;;;;;;10.13;4.05;;;;;;;-143.54;100.00;59916.91;5097625;28;20030;-79
2023/12/13 02:30:58;;;;;;;15.70;4.50;;;;;;;-143.54;100.00;59916.91;5098372;28;20107;-79
2023/12/13 02:33:28;;;;;;;13.43;4.22;;;;;;;-143.54;100.00;59916.91;5095411;28;20357;-79
2023/12/13 02:35:55;;;;;;;17.90;5.30;;;;;;;-143.54;100.00;59916.91;5087083;28;20387;-79
2023/12/13 02:38:20;;;;;;;17.30;4.55;;;;;;;-143.54;100.00;59916.91;5096287;28;20024;-79
2023/12/13 02:40:46;;;;;;;11.30;4.30;;;;;;;-143.54;100.00;59916.91;5098279;28;20031;-78
2023/12/13 02:43:12;;;;;;;15.27;4.40;;;;;;;-143.54;100.00;59916.91;5096122;28;20019;-79
2023/12/13 02:45:37;;;;;;;18.35;4.68;;;;;;;-143.54;100.00;59916.91;5097733;28;20032;-78
2023/12/13 02:48:03;;;;;;;21.05;5.25;;;;;;;-143.54;100.00;59916.91;5094648;28;20031;-79
2023/12/13 02:50:28;;;;;;;15.48;4.50;;;;;;;-143.54;100.00;59916.91;5098672;28;20158;-79
2023/12/13 02:52:53;;;;;;;17.90;5.03;;;;;;;-143.54;100.00;59916.91;5103145;28;20102;-78
2023/12/13 02:55:19;;;;;;;21.10;5.40;;;;;;;-143.54;100.00;59916.91;5097837;28;20120;-79
2023/12/13 02:57:44;;;;;;;17.02;4.53;;;;;;;-143.54;100.00;59916.91;5095354;28;20403;-79
2023/12/13 03:00:10;;;;;;;21.67;4.63;;;;;;;-143.54;100.00;59916.91;5097040;28;20035;-79
2023/12/13 03:02:36;;;;;;;17.92;4.88;;;;;;;-143.54;100.00;59916.91;5102634;28;20459;-79
2023/12/13 03:05:03;;;;;;;18.33;5.00;;;;;;;-143.54;100.00;59916.91;5098220;28;20034;-79
2023/12/13 03:07:28;;;;;;;18.17;4.43;;;;;;;-143.54;100.00;59916.91;5100042;28;20024;-79
2023/12/13 03:09:54;;;;;;;15.90;4.57;;;;;;;-143.54;100.00;59916.91;5094771;28;20100;-79
2023/12/13 03:12:19;;;;;;;21.08;4.63;;;;;;;-143.54;100.00;59916.91;5100293;28;20085;-78
2023/12/13 03:14:44;;;;;;;18.45;4.18;;;;;;;-143.54;100.00;59916.91;5100617;28;20067;-79
2023/12/13 03:17:09;;;;;;;15.27;4.50;;;;;;;-143.54;100.00;59916.91;5101385;28;20020;-78
2023/12/13 03:19:35;;;;;;;17.58;4.20;;;;;;;-143.54;100.00;59916.91;5100597;28;20417;-78
2023/12/13 03:22:00;;;;;;;16.40;4.47;;;;;;;-143.54;100.00;59916.91;5099476;28;20782;-79
2023/12/13 03:24:25;;;;;;;19.38;4.20;;;;;;;-143.54;100.00;59916.91;5100734;28;20020;-78
2023/12/13 03:26:51;;;;;;;16.63;4.18;;;;;;;-143.54;100.00;59916.91;5100566;28;20020;-78
2023/12/13 03:29:17;;;;;;;19.75;4.82;;;;;;;-143.54;100.00;59916.91;5098002;28;20024;-78
2023/12/13 03:31:43;;;;;;;20.33;4.45;;;;;;;-143.54;100.00;59916.91;5102118;28;20490;-78
2023/12/13 03:34:08;;;;;;;20.48;4.90;;;;;;;-143.54;100.00;59916.91;5097669;28;20036;-78
2023/12/13 03:36:33;;;;;;;22.30;4.60;;;;;;;-143.54;100.00;59916.91;5098520;28;20028;-79
2023/12/13 03:38:59;;;;;;;21.50;4.45;;;;;;;-143.54;100.00;59916.91;5096888;28;20023;-79
2023/12/13 03:41:24;;;;;;;18.65;4.03;;;;;;;-143.54;100.00;59916.91;5099698;28;20165;-79
2023/12/13 03:43:49;;;;;;;23.02;5.00;;;;;;;-143.54;100.00;59916.91;5093717;28;20024;-79
2023/12/13 03:46:15;;;;;;;16.65;3.92;;;;;;;-143.54;100.00;59916.91;5101855;28;20386;-79
2023/12/13 03:48:40;;;;;;;24.88;4.43;;;;;;;-143.54;100.00;59916.91;5093062;28;20027;-79
2023/12/13 03:51:05;;;;;;;19.20;4.50;;;;;;;-143.54;100.00;59916.91;5100123;28;20831;-79
2023/12/13 03:53:31;;;;;;;17.15;4.35;;;;;;;-143.54;100.00;59916.91;5094330;28;20032;-79
2023/12/13 03:55:57;;;;;;;22.20;4.35;;;;;;;-143.54;100.00;59916.91;5097955;28;20056;-79
2023/12/13 03:58:22;;;;;;;16.75;4.18;;;;;;;-143.54;100.00;59916.91;5096996;28;20028;-79
2023/12/13 04:00:47;;;;;;;18.98;4.18;;;;;;;-143.54;100.00;59916.91;5099374;28;20035;-79
2023/12/13 04:03:13;;;;;;;20.58;4.20;;;;;;;-143.54;100.00;59916.91;5100849;28;20478;-79
2023/12/13 04:05:38;;;;;;;23.52;4.97;;;;;;;-143.54;100.00;59916.91;5099007;28;20050;-79
2023/12/13 04:08:03;;;;;;;22.95;4.93;;;;;;;-143.54;100.00;59916.91;5102148;28;20054;-79
2023/12/13 04:10:29;;;;;;;17.58;5.82;;;;;;;-143.54;100.00;59916.91;5098052;28;20027;-79
2023/12/13 04:12:54;;;;;;;23.40;5.35;;;;;;;-143.54;100.00;59916.91;5101625;28;20120;-79
2023/12/13 04:15:19;;;;;;;27.67;4.90;;;;;;;-143.54;100.00;59916.91;5105316;28;20032;-78
2023/12/13 04:17:45;;;;;;;23.73;5.03;;;;;;;-143.54;100.00;59916.91;5099696;28;20020;-79
2023/12/13 04:20:10;;;;;;;25.90;4.97;;;;;;;-143.54;100.00;59916.91;5102288;28;20387;-79
2023/12/13 04:22:36;;;;;;;22.33;4.93;;;;;;;-143.54;100.00;59916.91;5102423;28;20028;-79
2023/12/13 04:25:02;;;;;;;25.08;5.15;;;;;;;-143.54;100.00;59916.91;5099312;28;20428;-79
2023/12/13 04:27:27;;;;;;;28.17;5.68;;;;;;;-143.54;100.00;59916.91;5104554;28;20043;-78
2023/12/13 04:29:52;;;;;;;18.05;4.45;;;;;;;-143.54;100.00;59916.91;5099842;28;20090;-79
2023/12/13 04:32:17;;;;;;;16.92;5.15;;;;;;;-143.54;100.00;59916.91;5103532;28;20031;-79
2023/12/13 04:34:43;;;;;;;24.60;5.65;;;;;;;-143.54;100.00;59916.91;5099648;28;20024;-79
2023/12/13 04:37:08;;;;;;;26.35;5.65;;;;;;;-143.54;100.00;59916.91;5103240;28;20012;-79
2023/12/13 04:39:34;;;;;;;23.33;5.85;;;;;;;-143.54;100.00;59916.91;5098427;28;20063;-79
2023/12/13 04:41:59;;;;;;;26.83;5.72;;;;;;;-143.54;100.00;59916.91;5102025;28;20486;-79
2023/12/13 04:44:27;;;;;;;24.67;6.30;;;;;;;-143.54;100.00;59916.91;5099962;28;20485;-79
2023/12/13 04:46:54;;;;;;;24.58;5.32;;;;;;;-143.54;100.00;59916.91;5100844;28;20070;-79
2023/12/13 04:49:19;;;;;;;27.20;5.80;;;;;;;-143.54;100.00;59916.91;5099870;28;20104;-79
2023/12/13 04:51:44;;;;;;;28.42;6.47;;;;;;;-143.54;100.00;59916.91;5101831;28;20055;-79
2023/12/13 04:54:10;;;;;;;23.20;5.90;;;;;;;-143.54;100.00;59916.91;5096833;28;20400;-79
2023/12/13 04:56:35;;;;;;;29.00;6.75;;;;;;;-143.54;100.00;59916.91;5102994;28;20035;-79
2023/12/13 04:59:00;;;;;;;30.63;6.35;;;;;;;-143.54;100.00;59916.91;5095587;28;20475;-79
2023/12/13 05:01:26;;;;;;;19.67;5.80;;;;;;;-143.54;100.00;59916.91;5103759;28;20023;-79
2023/12/13 05:03:51;;;;;;;37.92;6.70;;;;;;;-143.54;100.00;59916.91;5095296;28;20424;-79
2023/12/13 05:06:16;;;;;;;30.27;6.90;;;;;;;-143.54;100.00;59916.91;5101162;28;20502;-79
2023/12/13 05:08:42;;;;;;;32.53;6.65;;;;;;;-143.54;100.00;59916.91;5097348;28;20038;-78
2023/12/13 05:11:07;;;;;;;26.42;6.47;;;;;;;-143.54;100.00;59916.91;5099144;28;20028;-79
2023/12/13 05:13:32;;;;;;;25.40;6.70;;;;;;;-143.54;100.00;59916.91;5102466;28;20034;-78
2023/12/13 05:15:57;;;;;;;29.65;6.78;;;;;;;-143.54;100.00;59916.91;5102956;28;20031;-79
2023/12/13 05:18:23;;;;;;;26.88;6.78;;;;;;;-143.54;100.00;59916.91;5098354;28;20380;-78
2023/12/13 05:20:49;;;;;;;26.05;7.05;;;;;;;-143.54;100.00;59916.91;5104411;28;20031;-79
2023/12/13 05:23:14;;;;;;;27.52;5.97;;;;;;;-143.54;100.00;59916.91;5096439;28;20066;-79
2023/12/13 05:25:40;;;;;;;29.42;6.22;;;;;;;-143.54;100.00;59916.91;5104602;28;20023;-79
2023/12/13 05:28:05;;;;;;;26.35;5.85;;;;;;;-143.54;100.00;59916.91;5096639;28;20089;-79
2023/12/13 05:30:31;;;;;;;21.83;5.63;;;;;;;-143.54;100.00;59916.91;5102641;28;20028;-79
2023/12/13 05:32:56;;;;;;;31.35;6.63;;;;;;;-143.54;100.00;59916.91;5099657;28;20383;-79
2023/12/13 05:35:22;;;;;;;23.55;6.05;;;;;;;-143.54;100.00;59916.91;5099338;28;20387;-79
2023/12/13 05:37:47;;;;;;;28.05;6.78;;;;;;;-143.54;100.00;59916.91;5101236;28;20111;-79
2023/12/13 05:40:13;;;;;;;27.00;5.60;;;;;;;-143.54;100.00;59916.91;5098378;28;20459;-79
2023/12/13 05:42:39;;;;;;;19.90;5.78;;;;;;;-143.54;100.00;59916.91;5102153;28;20020;-79
2023/12/13 05:45:05;;;;;;;20.48;5.80;;;;;;;-143.54;100.00;59916.91;5097948;28;20154;-79
2023/12/13 05:47:30;;;;;;;23.70;5.88;;;;;;;-143.54;100.00;59916.91;5102339;28;20035;-79
2023/12/13 05:49:56;;;;;;;20.63;5.72;;;;;;;-143.54;100.00;59916.91;5097189;28;20486;-79
2023/12/13 05:52:22;;;;;;;32.75;5.88;;;;;;;-143.54;100.00;59916.91;5102053;28;20111;-79
2023/12/13 05:54:47;;;;;;;25.92;5.63;;;;;;;-143.54;100.00;59916.91;5097083;28;20078;-79
2023/12/13 05:57:12;;;;;;;26.38;5.20;;;;;;;-143.54;100.00;59916.91;5099817;28;20027;-79
2023/12/13 05:59:38;;;;;;;27.08;5.82;;;;;;;-143.54;100.00;59916.91;5098171;28;20047;-79
2023/12/13 06:02:03;;;;;;;33.78;6.70;;;;;;;-143.54;100.00;59916.91;5100079;28;20028;-79
2023/12/13 06:04:28;;;;;;;30.33;6.25;;;;;;;-143.54;100.00;59916.91;5097061;28;20028;-79
2023/12/13 06:06:53;;;;;;;28.45;6.00;;;;;;;-143.54;100.00;59916.91;5100186;28;20024;-79
2023/12/13 06:09:19;;;;;;;37.05;5.72;;;;;;;-143.54;100.00;59916.91;5094949;28;20383;-79
2023/12/13 06:11:44;;;;;;;21.55;5.80;;;;;;;-143.54;100.00;59916.91;5101413;28;20145;-79
2023/12/13 06:14:10;;;;;;;32.65;6.20;;;;;;;-143.54;100.00;59916.91;5098933;28;20487;-79
2023/12/13 06:16:35;;;;;;;25.17;6.35;;;;;;;-143.54;100.00;59916.91;5101470;28;20117;-79
2023/12/13 06:19:00;;;;;;;29.70;5.80;;;;;;;-143.54;100.00;59916.91;5099688;28;20070;-79
2023/12/13 06:21:26;;;;;;;28.20;6.13;;;;;;;-143.54;100.00;59916.91;5100927;28;20114;-79
2023/12/13 06:23:51;;;;;;;23.02;5.88;;;;;;;-143.54;100.00;59916.91;5098584;28;20031;-79
2023/12/13 06:26:17;;;;;;;29.70;6.15;;;;;;;-143.54;100.00;59916.91;5100954;28;20398;-79
2023/12/13 06:28:42;;;;;;;30.08;6.97;;;;;;;-143.54;100.00;59916.91;5098032;28;20035;-79
2023/12/13 06:31:07;;;;;;;30.67;7.30;;;;;;;-143.54;100.00;59916.91;5102043;28;20015;-79
2023/12/13 06:33:33;;;;;;;19.02;6.97;;;;;;;-143.54;100.00;59916.91;5095789;28;20488;-79
2023/12/13 06:35:58;;;;;;;29.55;7.53;;;;;;;-143.54;100.00;59916.91;5103464;28;20119;-79
2023/12/13 06:38:23;;;;;;;24.52;6.97;;;;;;;-143.54;100.00;59916.91;5094755;28;20104;-79
2023/12/13 06:40:49;;;;;;;28.00;6.80;;;;;;;-143.54;100.00;59916.91;5101793;28;20028;-79
2023/12/13 06:43:14;;;;;;;28.85;6.57;;;;;;;-143.54;100.00;59916.91;5097637;28;20044;-79
2023/12/13 06:45:39;;;;;;;33.42;6.68;;;;;;;-143.54;100.00;59916.91;5098936;28;20063;-79
2023/12/13 06:48:06;;;;;;;29.58;6.55;;;;;;;-143.54;100.00;59916.91;5099049;28;20056;-79
2023/12/13 06:50:32;;;;;;;27.25;6.80;;;;;;;-143.54;100.00;59916.91;5097305;28;20107;-79
2023/12/13 06:52:57;;;;;;;24.02;6.90;;;;;;;-143.54;100.00;59916.91;5100061;28;20099;-80
2023/12/13 06:55:22;;;;;;;30.38;7.45;;;;;;;-143.54;100.00;59916.91;5097185;28;20482;-79
2023/12/13 06:57:48;;;;;;;34.78;8.15;;;;;;;-143.54;100.00;59916.91;5100990;28;20028;-79
2023/12/13 07:00:14;;;;;;;32.47;7.45;;;;;;;-143.54;100.00;59916.91;5096006;28;20020;-79
2023/12/13 07:02:40;;;;;;;28.60;7.30;;;;;;;-143.54;100.00;59916.91;5100966;28;20031;-79
2023/12/13 07:05:08;;;;;;;29.10;7.68;;;;;;;-143.54;100.00;59916.91;5096171;28;20024;-79
2023/12/13 07:07:34;;;;;;;33.13;8.63;;;;;;;-143.54;100.00;59916.91;5092869;28;20036;-79
2023/12/13 07:09:59;;;;;;;27.50;7.97;;;;;;;-143.54;100.00;59916.91;5101135;28;20024;-79
2023/12/13 07:12:28;;;;;;;29.10;7.60;;;;;;;-143.54;100.00;59916.91;5099421;28;20384;-79
2023/12/13 07:14:57;;;;;;;32.35;7.63;;;;;;;-143.54;100.00;59916.91;5099255;28;20039;-79
2023/12/13 07:17:22;;;;;;;23.35;7.65;;;;;;;-143.54;100.00;59916.91;5102073;28;20173;-79
2023/12/13 07:19:48;;;;;;;31.95;8.27;;;;;;;-143.54;100.00;59916.91;5097046;28;20542;-79
2023/12/13 07:22:13;;;;;;;22.08;7.70;;;;;;;-143.54;100.00;59916.91;5102740;28;20473;-79
2023/12/13 07:24:39;;;;;;;24.17;8.27;;;;;;;-143.54;100.00;59916.91;5097684;28;20040;-79
2023/12/13 07:27:05;;;;;;;31.40;8.52;;;;;;;-143.54;100.00;59916.91;5102220;28;20030;-79
2023/12/13 07:29:32;;;;;;;29.83;7.72;;;;;;;-143.54;100.00;59916.91;5097723;28;20020;-79
2023/12/13 07:31:57;;;;;;;33.67;9.40;;;;;;;-143.54;100.00;59916.91;5101965;28;20107;-81
2023/12/13 07:34:23;;;;;;;26.88;8.43;;;;;;;-143.54;100.00;59916.91;5107240;28;20127;-80
2023/12/13 07:36:49;;;;;;;35.40;9.00;;;;;;;-143.54;100.00;59916.91;5107528;28;20063;-80
2023/12/13 07:39:18;;;;;;;24.77;8.55;;;;;;;-143.54;100.00;59916.91;5095152;28;20027;-80
2023/12/13 07:41:43;;;;;;;30.90;8.90;;;;;;;-143.54;100.00;59916.91;5090991;28;20043;-80
2023/12/13 07:44:09;;;;;;;34.20;8.50;;;;;;;-143.54;100.00;59916.91;5100878;28;20470;-80
2023/12/13 07:46:34;;;;;;;26.45;8.00;;;;;;;-143.54;100.00;59916.91;5104958;28;20063;-80
2023/12/13 07:49:03;;;;;;;23.73;9.00;;;;;;;-143.54;100.00;59916.91;5094490;28;20357;-80
2023/12/13 07:51:31;;;;;;;28.35;8.77;;;;;;;-143.54;100.00;59916.91;5106254;28;20039;-80
2023/12/13 07:53:58;;;;;;;25.83;9.82;;;;;;;-143.54;100.00;59916.91;5097300;28;20036;-80
2023/12/13 07:56:25;;;;;;;23.25;8.90;;;;;;;-143.54;100.00;59916.91;5097657;28;20502;-80
2023/12/13 07:58:50;;;;;;;28.50;8.85;;;;;;;-143.54;100.00;59916.91;5096776;28;20035;-80
2023/12/13 08:01:15;;;;;;;30.42;9.07;;;;;;;-143.54;100.00;59916.91;5110155;28;20428;-80
2023/12/13 08:03:40;;;;;;;31.17;10.60;;;;;;;-143.54;100.00;59916.91;5097259;28;20119;-80
2023/12/13 08:06:18;;;;;;;29.13;8.35;;;;;;;-143.54;100.00;59916.91;5099753;28;20035;-80
2023/12/13 08:08:44;;;;;;;29.65;8.70;;;;;;;-143.54;100.00;59916.91;5104979;28;20039;-79
2023/12/13 08:11:09;;;;;;;31.27;9.02;;;;;;;-143.54;100.00;59916.91;5101001;28;20111;-80
2023/12/13 08:13:35;;;;;;;23.77;8.55;;;;;;;-143.54;100.00;59916.91;5105739;28;20020;-80
2023/12/13 08:16:00;;;;;;;29.13;8.18;;;;;;;-143.54;100.00;59916.91;5104582;28;20131;-80
2023/12/13 08:18:26;;;;;;;34.55;8.77;;;;;;;-143.54;100.00;59916.91;5099612;28;20054;-80
2023/12/13 08:20:51;;;;;;;21.65;8.25;;;;;;;-143.54;100.00;59916.91;5106949;28;20478;-80
2023/12/13 08:23:17;;;;;;;29.70;9.32;;;;;;;-143.54;100.00;59916.91;5097214;28;20028;-80
2023/12/13 08:25:43;;;;;;;37.78;8.93;;;;;;;-143.54;100.00;59916.91;5107044;28;20501;-80
2023/12/13 08:28:08;;;;;;;35.00;9.05;;;;;;;-143.54;100.00;59916.91;5099466;28;20027;-79
2023/12/13 08:30:34;;;;;;;36.88;9.40;;;;;;;-143.54;100.00;59916.91;5104002;28;20098;-80
2023/12/13 08:32:59;;;;;;;28.40;8.57;;;;;;;-143.54;100.00;59916.91;5101106;28;20111;-79
2023/12/13 08:35:26;;;;;;;25.30;8.35;;;;;;;-143.54;100.00;59916.91;5102109;28;20032;-79
2023/12/13 08:37:51;;;;;;;24.40;9.07;;;;;;;-143.54;100.00;59916.91;5102010;28;20072;-79
2023/12/13 08:40:17;;;;;;;28.95;8.93;;;;;;;-143.54;100.00;59916.91;5099746;28;20122;-79
2023/12/13 08:42:42;;;;;;;29.77;8.38;;;;;;;-143.54;100.00;59916.91;5104473;28;20028;-79
2023/12/13 08:45:10;;;;;;;26.23;8.75;;;;;;;-143.54;100.00;59916.91;5097801;28;20031;-79
2023/12/13 08:47:35;;;;;;;28.73;8.77;;;;;;;-143.54;100.00;59916.91;5103742;28;20019;-79
2023/12/13 08:50:00;;;;;;;29.50;9.18;;;;;;;-143.54;100.00;59916.91;5099291;28;20031;-79
2023/12/13 08:52:26;;;;;;;38.13;9.90;;;;;;;-143.54;100.00;59916.91;5102842;28;20077;-79
2023/12/13 08:54:51;;;;;;;23.17;9.75;;;;;;;-143.54;100.00;59916.91;5098665;28;20521;-79
2023/12/13 08:57:16;;;;;;;29.92;9.82;;;;;;;-143.54;100.00;59916.91;5101900;28;20020;-79
2023/12/13 08:59:43;;;;;;;30.35;10.13;;;;;;;-143.54;100.00;59916.91;5099703;28;20494;-79
2023/12/13 09:02:08;;;;;;;34.83;10.52;;;;;;;-143.54;100.00;59916.91;5101222;28;20111;-79
2023/12/13 09:04:33;;;;;;;27.95;9.68;;;;;;;-143.54;100.00;59916.91;5099826;28;20352;-79
2023/12/13 09:06:58;;;;;;;33.55;9.60;;;;;;;-143.54;100.00;59916.91;5100550;28;20063;-79
2023/12/13 09:09:24;;;;;;;29.50;9.57;;;;;;;-143.54;100.00;59916.91;5097204;28;20417;-79
2023/12/13 09:11:49;;;;;;;25.08;9.63;;;;;;;-143.54;100.00;59916.91;5102984;28;20035;-79
2023/12/13 09:14:14;;;;;;;28.33;8.88;;;;;;;-143.54;100.00;59916.91;5100060;28;20024;-79
2023/12/13 09:16:40;;;;;;;37.83;9.32;;;;;;;-143.54;100.00;59916.91;5104181;28;20107;-79
2023/12/13 09:19:07;;;;;;;35.15;9.55;;;;;;;-143.54;100.00;59916.91;5100041;28;20119;-79
2023/12/13 09:21:32;;;;;;;27.63;9.50;;;;;;;-143.54;100.00;59916.91;5101969;28;20070;-79
2023/12/13 09:23:58;;;;;;;31.90;9.77;;;;;;;-143.54;100.00;59916.91;5101255;28;20070;-79
2023/12/13 09:26:23;;;;;;;31.60;9.65;;;;;;;-143.54;100.00;59916.91;5101315;28;20472;-79
2023/12/13 09:28:48;;;;;;;40.97;10.40;;;;;;;-143.54;100.00;59916.91;5099612;28;20035;-79
2023/12/13 09:31:14;;;;;;;29.45;10.13;;;;;;;-143.54;100.00;59916.91;5103415;28;20088;-79
2023/12/13 09:33:39;;;;;;;30.17;9.25;;;;;;;-143.54;100.00;59916.91;5097107;28;20020;-79
2023/12/13 09:36:06;;;;;;;30.00;9.70;;;;;;;-143.54;100.00;59916.91;5104939;28;20028;-79
2023/12/13 09:38:31;;;;;;;30.38;9.57;;;;;;;-143.54;100.00;59916.91;5095943;28;20024;-79
2023/12/13 09:40:57;;;;;;;30.33;9.48;;;;;;;-143.54;100.00;59916.91;5103393;28;20019;-79
2023/12/13 09:43:24;;;;;;;27.52;10.23;;;;;;;-143.54;100.00;59916.91;5097691;28;20111;-79
2023/12/13 09:45:54;;;;;;;29.88;10.45;;;;;;;-143.54;100.00;59916.91;5101737;28;20038;-79
2023/12/13 09:48:22;;;;;;;26.98;9.82;;;;;;;-143.54;100.00;59916.91;5095922;28;20024;-79
2023/12/13 09:50:57;;;;;;;29.60;10.60;;;;;;;-143.54;100.00;59916.91;5100727;28;20058;-79
2023/12/13 09:53:24;;;;;;;29.27;10.82;;;;;;;-143.54;100.00;59916.91;5098445;28;20036;-79
2023/12/13 09:55:52;;;;;;;29.65;11.15;;;;;;;-143.54;100.00;59916.91;5094813;28;20028;-79
2023/12/13 09:58:17;;;;;;;29.25;10.90;;;;;;;-143.54;100.00;59916.91;5099600;28;20024;-79
2023/12/13 10:00:43;;;;;;;24.30;10.57;;;;;;;-143.54;100.00;59916.91;5097876;28;20046;-79
2023/12/13 10:03:08;;;;;;;32.30;11.65;;;;;;;-143.54;100.00;59916.91;5100712;28;20374;-79
2023/12/13 10:05:39;;;;;;;28.55;10.98;;;;;;;-143.54;100.00;59916.91;5097617;28;20086;-79
2023/12/13 10:08:04;;;;;;;27.85;9.82;;;;;;;-143.54;100.00;59916.91;5100156;28;20024;-79
2023/12/13 10:10:35;;;;;;;26.30;10.73;;;;;;;-143.54;100.00;59916.91;5096002;28;20042;-79
2023/12/13 10:13:01;;;;;;;26.95;10.50;;;;;;;-143.54;100.00;59916.91;5101702;28;20050;-79
2023/12/13 10:15:31;;;;;;;24.65;9.88;;;;;;;-143.54;100.00;59916.91;5103685;28;20023;-81
2023/12/13 10:17:58;;;;;;;25.65;10.50;;;;;;;-143.54;100.00;59916.91;5096630;28;20027;-81
2023/12/13 10:20:24;;;;;;;25.65;10.48;;;;;;;-143.54;100.00;59916.91;5101681;28;20413;-79
2023/12/13 10:22:50;;;;;;;29.80;10.88;;;;;;;-143.54;100.00;59916.91;5097949;28;20492;-79
2023/12/13 10:25:22;;;;;;;28.13;10.63;;;;;;;-143.54;100.00;59916.91;5096883;28;20121;-79
2023/12/13 10:27:48;;;;;;;26.73;11.15;;;;;;;-143.54;100.00;59916.91;5098500;28;20400;-78
2023/12/13 10:30:13;;;;;;;32.28;10.10;;;;;;;-143.54;100.00;59916.91;5099079;28;20077;-79
2023/12/13 10:32:39;;;;;;;29.05;9.88;;;;;;;-143.54;100.00;59916.91;5098346;28;20541;-75
2023/12/13 10:35:05;;;;;;;30.48;10.18;;;;;;;-143.54;100.00;59916.91;5108825;28;20035;-78
2023/12/13 10:37:34;;;;;;;32.65;10.32;;;;;;;-143.54;100.00;59916.91;5100833;28;20020;-78
2023/12/13 10:39:59;;;;;;;28.23;9.23;;;;;;;-143.54;100.00;59916.91;5101004;28;20028;-79
2023/12/13 10:42:26;;;;;;;22.90;9.65;;;;;;;-143.54;100.00;59916.91;5102203;28;20157;-77
2023/12/13 10:44:52;;;;;;;38.70;10.57;;;;;;;-143.54;100.00;59916.91;5089181;28;20020;-78
2023/12/13 10:47:25;;;;;;;31.65;9.82;;;;;;;-143.54;100.00;59916.91;5099380;28;20031;-78
2023/12/13 10:49:55;;;;;;;23.70;9.35;;;;;;;-143.54;100.00;59916.91;5089789;28;20023;-78
2023/12/13 10:52:22;;;;;;;32.40;9.73;;;;;;;-143.54;100.00;59916.91;5103946;28;20028;-79
2023/12/13 10:54:49;;;;;;;30.65;10.00;;;;;;;-143.54;100.00;59916.91;5087974;28;20551;-77